createdAt,value
2018-11-29T00:00:11.924Z,33.57
2018-11-29T00:02:40.390Z,34.30
2018-11-29T00:05:08.806Z,30.73
2018-11-29T00:07:37.461Z,36.00
2018-11-29T00:10:06.116Z,31.57
2018-11-29T00:12:34.563Z,32.30
2018-11-29T00:15:02.976Z,27.10
2018-11-29T00:17:31.447Z,25.77
2018-11-29T00:19:59.888Z,28.73
2018-11-29T00:22:28.313Z,34.33
2018-11-29T00:24:56.726Z,32.00
2018-11-29T00:27:25.132Z,31.80
2018-11-29T00:29:53.527Z,31.90
2018-11-29T00:32:21.974Z,34.10
2018-11-29T00:34:50.453Z,27.17
2018-11-29T00:37:18.853Z,28.60
2018-11-29T00:39:47.234Z,29.30
2018-11-29T00:42:15.667Z,29.97
2018-11-29T00:44:44.054Z,26.03
2018-11-29T00:47:12.500Z,22.83
2018-11-29T00:49:40.921Z,30.63
2018-11-29T00:52:09.327Z,24.97
2018-11-29T00:54:37.904Z,26.67
2018-11-29T00:57:06.645Z,24.73
2018-11-29T00:59:35.029Z,30.60
2018-11-29T01:02:03.446Z,27.20
2018-11-29T01:04:31.858Z,26.40
2018-11-29T01:07:00.243Z,25.97
2018-11-29T01:09:28.677Z,24.97
2018-11-29T01:11:57.123Z,26.80
2018-11-29T01:14:25.609Z,29.87
2018-11-29T01:16:54.007Z,26.40
2018-11-29T01:19:22.448Z,27.57
2018-11-29T01:21:50.895Z,25.93
2018-11-29T01:24:19.301Z,29.70
2018-11-29T01:26:47.991Z,23.17
2018-11-29T01:29:16.421Z,22.83
2018-11-29T01:31:44.813Z,23.07
2018-11-29T01:34:13.238Z,22.67
2018-11-29T01:36:41.633Z,22.03
2018-11-29T01:39:10.141Z,21.30
2018-11-29T01:41:38.542Z,22.50
2018-11-29T01:44:07.382Z,26.50
2018-11-29T01:46:35.864Z,22.23
2018-11-29T01:49:05.029Z,23.17
2018-11-29T01:51:33.454Z,23.13
2018-11-29T01:54:01.850Z,22.30
2018-11-29T01:56:30.254Z,28.47
2018-11-29T01:58:58.644Z,26.37
2018-11-29T02:01:27.023Z,22.90
2018-11-29T02:03:55.417Z,23.67
2018-11-29T02:06:23.805Z,23.97
2018-11-29T02:08:52.191Z,23.47
2018-11-29T02:11:20.563Z,24.03
2018-11-29T02:13:48.961Z,30.03
2018-11-29T02:16:17.345Z,22.80
2018-11-29T02:18:45.717Z,19.20
2018-11-29T02:21:14.133Z,26.00
2018-11-29T02:23:42.529Z,18.80
2018-11-29T02:26:10.961Z,22.50
2018-11-29T02:28:41.252Z,20.50
2018-11-29T02:31:09.704Z,23.10
2018-11-29T02:33:38.105Z,20.03
2018-11-29T02:36:06.787Z,17.90
2018-11-29T02:38:35.472Z,23.90
2018-11-29T02:41:03.963Z,16.70
2018-11-29T02:43:32.421Z,17.80
2018-11-29T02:46:00.819Z,22.80
2018-11-29T02:48:29.189Z,16.70
2018-11-29T02:50:57.573Z,19.57
2018-11-29T02:53:26.055Z,21.07
2018-11-29T02:55:54.781Z,18.80
2018-11-29T02:58:23.216Z,18.67
2018-11-29T03:00:52.948Z,18.07
2018-11-29T03:03:21.385Z,17.03
2018-11-29T03:05:49.881Z,21.40
2018-11-29T03:08:18.617Z,19.20
2018-11-29T03:10:46.994Z,17.60
2018-11-29T03:13:15.410Z,16.90
2018-11-29T03:15:43.778Z,15.03
2018-11-29T03:18:12.250Z,16.67
2018-11-29T03:20:40.675Z,14.53
2018-11-29T03:23:09.096Z,14.43
2018-11-29T03:25:37.512Z,15.00
2018-11-29T03:28:06.194Z,20.40
2018-11-29T03:30:34.579Z,17.60
2018-11-29T03:33:03.042Z,15.10
2018-11-29T03:35:31.477Z,17.73
2018-11-29T03:37:59.915Z,16.00
2018-11-29T03:40:28.309Z,12.93
2018-11-29T03:42:56.758Z,16.87
2018-11-29T03:45:25.779Z,18.57
2018-11-29T03:47:54.206Z,13.23
2018-11-29T03:50:22.614Z,12.77
2018-11-29T03:52:51.029Z,15.87
2018-11-29T03:55:19.453Z,14.13
2018-11-29T03:57:47.893Z,16.93
2018-11-29T04:00:17.231Z,16.47
2018-11-29T04:02:46.563Z,14.23
2018-11-29T04:05:15.089Z,13.47
2018-11-29T04:07:43.492Z,14.37
2018-11-29T04:10:13.042Z,13.73
2018-11-29T04:12:41.746Z,19.00
2018-11-29T04:15:11.459Z,12.13
2018-11-29T04:17:40.928Z,13.80
2018-11-29T04:20:09.979Z,12.90
2018-11-29T04:22:38.334Z,11.13
2018-11-29T04:25:08.228Z,14.10
2018-11-29T04:27:36.673Z,12.07
2018-11-29T04:30:06.107Z,14.10
2018-11-29T04:32:35.320Z,15.00
2018-11-29T04:35:03.732Z,9.83
2018-11-29T04:37:32.058Z,12.40
2018-11-29T04:40:00.493Z,11.00
2018-11-29T04:42:28.824Z,14.33
2018-11-29T04:44:57.183Z,9.77
2018-11-29T04:47:27.268Z,11.87
2018-11-29T04:49:55.681Z,15.53
2018-11-29T04:52:24.029Z,11.83
2018-11-29T04:54:52.401Z,13.50
2018-11-29T04:57:20.794Z,11.20
2018-11-29T04:59:49.169Z,13.47
2018-11-29T05:02:17.608Z,13.23
2018-11-29T05:04:46.015Z,13.67
2018-11-29T05:07:14.412Z,14.17
2018-11-29T05:09:42.835Z,9.87
2018-11-29T05:12:11.203Z,13.10
2018-11-29T05:14:39.629Z,12.70
2018-11-29T05:17:08.001Z,12.33
2018-11-29T05:19:36.633Z,14.40
2018-11-29T05:22:05.106Z,14.20
2018-11-29T05:24:34.492Z,12.77
2018-11-29T05:27:02.895Z,11.30
2018-11-29T05:29:31.285Z,12.17
2018-11-29T05:31:59.734Z,14.93
2018-11-29T05:34:28.417Z,11.33
2018-11-29T05:36:56.906Z,15.17
2018-11-29T05:39:25.309Z,11.80
2018-11-29T05:41:53.712Z,10.47
2018-11-29T05:44:22.134Z,9.67
2018-11-29T05:46:51.374Z,11.17
2018-11-29T05:49:19.829Z,10.83
2018-11-29T05:51:48.221Z,11.13
2018-11-29T05:54:16.591Z,12.47
2018-11-29T05:56:44.998Z,12.00
2018-11-29T05:59:13.489Z,9.93
2018-11-29T06:01:43.490Z,10.27
2018-11-29T06:04:11.898Z,15.90
2018-11-29T06:06:40.341Z,10.20
2018-11-29T06:09:10.316Z,9.13
2018-11-29T06:11:39.430Z,10.43
2018-11-29T06:14:08.442Z,8.93
2018-11-29T06:16:37.835Z,8.20
2018-11-29T06:19:08.078Z,8.93
2018-11-29T06:21:36.532Z,14.53
2018-11-29T06:24:05.014Z,11.73
2018-11-29T06:26:33.480Z,8.57
2018-11-29T06:29:01.842Z,9.30
2018-11-29T06:31:30.259Z,13.13
2018-11-29T06:33:58.642Z,10.53
2018-11-29T06:36:27.047Z,10.17
2018-11-29T06:38:55.854Z,11.53
2018-11-29T06:41:24.257Z,8.83
2018-11-29T06:43:53.198Z,7.00
2018-11-29T06:49:12.900Z,10.07
2018-11-29T06:51:56.810Z,11.10
2018-11-29T06:54:30.978Z,9.43
2018-11-29T06:56:59.376Z,9.50
2018-11-29T06:59:27.757Z,12.13
2018-11-29T07:01:56.363Z,8.03
2018-11-29T07:04:24.715Z,12.17
2018-11-29T07:06:53.161Z,13.90
2018-11-29T07:09:21.517Z,16.60
2018-11-29T07:11:49.931Z,11.10
2018-11-29T07:14:18.249Z,13.23
2018-11-29T07:16:46.803Z,14.43
2018-11-29T07:19:15.503Z,13.50
2018-11-29T07:21:49.657Z,13.50
2018-11-29T07:24:18.042Z,14.80
2018-11-29T07:26:46.509Z,13.20
2018-11-29T07:29:17.101Z,10.53
2018-11-29T07:31:43.450Z,19.27
2018-11-29T07:34:11.866Z,13.80
2018-11-29T07:36:40.362Z,16.93
2018-11-29T07:39:10.545Z,11.70
2018-11-29T07:41:39.690Z,17.63
2018-11-29T07:44:09.349Z,16.03
2018-11-29T07:46:37.948Z,13.87
2018-11-29T07:49:06.396Z,20.40
2018-11-29T07:51:35.905Z,16.03
2018-11-29T07:54:04.412Z,11.23
2018-11-29T07:56:32.815Z,14.50
2018-11-29T07:59:01.244Z,18.27
2018-11-29T08:01:29.648Z,15.73
2018-11-29T08:03:58.049Z,17.17
2018-11-29T08:06:26.687Z,14.30
2018-11-29T08:08:55.604Z,13.87
2018-11-29T08:11:24.001Z,22.33
2018-11-29T08:13:53.438Z,17.63
2018-11-29T08:16:21.800Z,23.27
2018-11-29T08:18:50.336Z,14.13
2018-11-29T08:21:18.763Z,14.57
2018-11-29T08:23:47.134Z,16.97
2018-11-29T08:26:15.512Z,18.20
2018-11-29T08:28:44.566Z,17.47
2018-11-29T08:31:12.935Z,16.83
2018-11-29T08:33:41.738Z,14.27
2018-11-29T08:36:10.128Z,12.83
2018-11-29T08:38:38.476Z,11.37
2018-11-29T08:41:06.842Z,12.27
2018-11-29T08:43:35.291Z,15.73
2018-11-29T08:46:03.813Z,12.83
2018-11-29T08:48:32.201Z,12.10
2018-11-29T08:51:00.627Z,14.43
2018-11-29T08:53:29.002Z,11.30
2018-11-29T08:55:57.394Z,11.00
2018-11-29T08:58:25.775Z,15.13
2018-11-29T09:00:54.167Z,10.73
2018-11-29T09:03:22.628Z,11.93
2018-11-29T09:05:51.018Z,12.07
2018-11-29T09:08:19.417Z,15.93
2018-11-29T09:10:47.810Z,12.97
2018-11-29T09:13:16.192Z,16.83
2018-11-29T09:15:44.846Z,11.37
2018-11-29T09:18:13.240Z,15.40
2018-11-29T09:20:41.595Z,9.20
2018-11-29T09:23:09.993Z,9.33
2018-11-29T09:25:38.345Z,16.57
2018-11-29T09:28:06.747Z,15.20
2018-11-29T09:30:35.146Z,12.87
2018-11-29T09:33:03.535Z,13.50
2018-11-29T09:35:31.897Z,10.97
2018-11-29T09:38:00.313Z,11.40
2018-11-29T09:40:28.697Z,13.20
2018-11-29T09:42:57.412Z,11.00
2018-11-29T09:45:25.807Z,14.53
2018-11-29T09:47:55.813Z,11.83
2018-11-29T09:50:25.079Z,12.67
2018-11-29T09:52:53.476Z,9.77
2018-11-29T09:55:21.877Z,14.77
2018-11-29T09:57:50.835Z,8.50
2018-11-29T10:00:28.138Z,19.97
2018-11-29T10:02:59.248Z,12.53
2018-11-29T10:05:27.629Z,9.83
2018-11-29T10:08:00.800Z,9.20
2018-11-29T10:10:29.456Z,12.87
2018-11-29T10:12:57.860Z,11.77
2018-11-29T10:15:26.294Z,13.37
2018-11-29T10:17:55.857Z,8.00
2018-11-29T10:20:24.292Z,10.83
2018-11-29T10:22:55.650Z,12.10
2018-11-29T10:25:24.203Z,12.93
2018-11-29T10:27:57.235Z,13.83
2018-11-29T10:30:30.369Z,13.07
2018-11-29T10:32:58.767Z,9.00
2018-11-29T10:35:27.293Z,11.00
2018-11-29T10:37:56.102Z,11.00
2018-11-29T10:40:24.524Z,10.70
2018-11-29T10:42:52.941Z,9.87
2018-11-29T10:45:21.462Z,11.33
2018-11-29T10:47:52.412Z,10.17
2018-11-29T10:50:19.817Z,10.47
2018-11-29T10:52:48.255Z,10.40
2018-11-29T10:55:17.621Z,15.20
2018-11-29T10:57:46.333Z,9.70
2018-11-29T11:00:27.949Z,10.67
2018-11-29T11:03:03.273Z,13.53
2018-11-29T11:05:32.036Z,10.93
2018-11-29T11:08:00.623Z,10.60
2018-11-29T11:10:29.721Z,9.13
2018-11-29T11:12:58.115Z,16.07
2018-11-29T11:15:26.510Z,10.13
2018-11-29T11:17:54.873Z,7.67
2018-11-29T11:20:23.262Z,11.23
2018-11-29T11:22:51.727Z,10.00
2018-11-29T11:25:20.100Z,14.97
2018-11-29T11:27:48.594Z,8.70
2018-11-29T11:30:18.166Z,12.90
2018-11-29T11:32:48.730Z,7.10
2018-11-29T11:35:17.140Z,10.40
2018-11-29T11:37:45.617Z,10.17
2018-11-29T11:40:16.072Z,7.57
2018-11-29T11:42:45.334Z,9.80
2018-11-29T11:45:15.886Z,9.73
2018-11-29T11:47:44.349Z,10.10
2018-11-29T11:50:14.834Z,8.93
2018-11-29T11:52:43.790Z,13.37
2018-11-29T11:55:18.724Z,11.00
2018-11-29T11:57:41.716Z,10.63
2018-11-29T12:00:19.338Z,8.73
2018-11-29T12:02:49.830Z,15.53
2018-11-29T12:05:18.217Z,9.83
2018-11-29T12:07:46.637Z,11.17
2018-11-29T12:10:16.179Z,13.20
2018-11-29T12:12:44.623Z,9.80
2018-11-29T12:15:13.920Z,14.47
2018-11-29T12:20:33.003Z,12.53
2018-11-29T12:23:01.458Z,16.17
2018-11-29T12:25:30.578Z,12.97
2018-11-29T12:27:59.179Z,10.17
2018-11-29T12:30:35.981Z,12.27
2018-11-29T12:33:06.649Z,9.77
2018-11-29T12:35:35.063Z,11.80
2018-11-29T12:38:03.471Z,8.40
2018-11-29T12:40:32.052Z,11.27
2018-11-29T12:43:00.648Z,13.43
2018-11-29T12:45:29.010Z,9.93
2018-11-29T12:47:57.482Z,14.63
2018-11-29T12:50:26.620Z,12.27
2018-11-29T12:52:55.005Z,12.57
2018-11-29T12:55:24.643Z,17.73
2018-11-29T12:58:05.306Z,11.30
2018-11-29T13:00:22.536Z,15.13
2018-11-29T13:02:53.852Z,12.60
2018-11-29T13:05:22.307Z,12.83
2018-11-29T13:07:50.788Z,10.93
2018-11-29T13:10:21.292Z,12.07
2018-11-29T13:12:49.698Z,12.70
2018-11-29T13:15:24.361Z,14.67
2018-11-29T13:17:52.921Z,13.93
2018-11-29T13:20:21.357Z,13.70
2018-11-29T13:22:50.406Z,14.17
2018-11-29T13:25:20.555Z,11.93
2018-11-29T13:27:48.993Z,14.40
2018-11-29T13:30:21.335Z,18.20
2018-11-29T13:32:51.889Z,16.23
2018-11-29T13:35:35.507Z,16.60
2018-11-29T13:38:06.886Z,19.43
2018-11-29T13:40:35.311Z,14.17
2018-11-29T13:43:03.770Z,16.83
2018-11-29T13:45:32.161Z,17.33
2018-11-29T13:48:00.510Z,19.80
2018-11-29T13:50:28.941Z,16.43
2018-11-29T13:52:57.396Z,18.93
2018-11-29T13:55:25.819Z,19.47
2018-11-29T13:57:54.260Z,14.53
2018-11-29T14:00:23.488Z,19.70
2018-11-29T14:02:57.138Z,17.10
2018-11-29T14:05:25.584Z,18.80
2018-11-29T14:07:54.047Z,20.17
2018-11-29T14:10:23.542Z,14.50
2018-11-29T14:12:53.010Z,28.90
2018-11-29T14:15:22.725Z,17.57
2018-11-29T14:17:51.134Z,15.63
2018-11-29T14:20:19.700Z,15.27
2018-11-29T14:22:48.198Z,17.47
2018-11-29T14:25:17.165Z,15.77
2018-11-29T14:27:48.206Z,16.40
2018-11-29T14:30:24.011Z,20.33
2018-11-29T14:32:53.356Z,29.57
2018-11-29T14:35:21.791Z,20.30
2018-11-29T14:37:50.383Z,22.10
2018-11-29T14:40:26.831Z,24.90
2018-11-29T14:42:55.261Z,20.77
2018-11-29T14:45:24.780Z,19.30
2018-11-29T14:47:53.282Z,18.57
2018-11-29T14:50:42.931Z,21.87
2018-11-29T14:53:11.523Z,18.80
2018-11-29T14:55:40.971Z,18.10
2018-11-29T14:58:10.514Z,21.53
2018-11-29T15:00:38.963Z,16.97
2018-11-29T15:03:24.483Z,19.43
2018-11-29T15:05:52.947Z,20.83
2018-11-29T15:08:21.393Z,16.20
2018-11-29T15:10:49.793Z,17.83
2018-11-29T15:13:18.185Z,16.20
2018-11-29T15:15:46.595Z,22.47
2018-11-29T15:18:16.239Z,17.50
2018-11-29T15:20:48.250Z,19.27
2018-11-29T15:23:19.039Z,20.33
2018-11-29T15:25:47.489Z,15.40
2018-11-29T15:28:18.165Z,18.43
2018-11-29T15:30:47.559Z,17.20
2018-11-29T15:33:16.038Z,20.80
2018-11-29T15:35:44.481Z,16.83
2018-11-29T15:38:13.919Z,16.73
2018-11-29T15:40:42.360Z,22.20
2018-11-29T15:43:10.790Z,16.50
2018-11-29T15:45:39.182Z,21.27
2018-11-29T15:48:07.626Z,20.40
2018-11-29T15:50:36.114Z,18.83
2018-11-29T15:53:06.394Z,17.90
2018-11-29T15:55:35.171Z,22.07
2018-11-29T15:58:03.593Z,13.73
2018-11-29T16:00:32.193Z,16.27
2018-11-29T16:03:02.062Z,16.67
2018-11-29T16:05:30.611Z,17.43
2018-11-29T16:07:59.074Z,17.17
2018-11-29T16:10:28.798Z,14.80
2018-11-29T16:12:57.939Z,17.37
2018-11-29T16:15:26.467Z,18.30
2018-11-29T16:17:54.958Z,15.03
2018-11-29T16:20:31.001Z,16.87
2018-11-29T16:22:59.703Z,16.77
2018-11-29T16:25:28.132Z,19.97
2018-11-29T16:27:56.578Z,22.27
2018-11-29T16:30:56.404Z,17.27
2018-11-29T16:33:28.428Z,16.17
2018-11-29T16:35:56.878Z,18.57
2018-11-29T16:38:25.347Z,17.57
2018-11-29T16:40:53.788Z,19.70
2018-11-29T16:43:23.038Z,17.87
2018-11-29T16:45:51.510Z,16.63
2018-11-29T16:48:19.941Z,16.53
2018-11-29T16:50:48.375Z,24.73
2018-11-29T16:53:16.885Z,25.73
2018-11-29T16:55:45.340Z,20.07
2018-11-29T16:58:15.434Z,19.90
2018-11-29T17:00:43.864Z,20.20
2018-11-29T17:03:12.293Z,22.50
2018-11-29T17:05:40.770Z,23.53
2018-11-29T17:08:09.228Z,25.93
2018-11-29T17:10:37.702Z,20.20
2018-11-29T17:13:10.735Z,23.87
2018-11-29T17:15:39.143Z,21.63
2018-11-29T17:18:07.701Z,24.57
2018-11-29T17:20:36.542Z,21.77
2018-11-29T17:23:05.611Z,21.47
2018-11-29T17:25:34.037Z,22.00
2018-11-29T17:28:02.499Z,24.23
2018-11-29T17:30:31.002Z,18.60
2018-11-29T17:32:59.823Z,21.57
2018-11-29T17:35:28.300Z,21.60
2018-11-29T17:37:58.915Z,22.20
2018-11-29T17:40:27.319Z,24.63
2018-11-29T17:42:56.381Z,27.03
2018-11-29T17:45:25.976Z,28.33
2018-11-29T17:47:57.785Z,24.17
2018-11-29T17:50:30.589Z,24.93
2018-11-29T17:52:59.627Z,23.10
2018-11-29T17:55:28.040Z,25.97
2018-11-29T17:57:56.525Z,25.53
2018-11-29T18:00:26.357Z,27.43
2018-11-29T18:02:54.845Z,32.33
2018-11-29T18:05:23.340Z,27.47
2018-11-29T18:07:51.771Z,32.10
2018-11-29T18:10:21.517Z,23.57
2018-11-29T18:12:57.324Z,21.53
2018-11-29T18:15:27.154Z,30.13
2018-11-29T18:17:55.590Z,28.23
2018-11-29T18:20:24.041Z,27.37
2018-11-29T18:22:52.505Z,26.63
2018-11-29T18:25:20.974Z,25.27
2018-11-29T18:27:50.769Z,29.60
2018-11-29T18:30:21.302Z,27.77
2018-11-29T18:32:49.839Z,26.00
2018-11-29T18:35:18.284Z,33.30
2018-11-29T18:37:46.968Z,24.67
2018-11-29T18:40:18.222Z,25.37
2018-11-29T18:42:48.141Z,25.10
2018-11-29T18:45:18.520Z,25.50
2018-11-29T18:47:48.347Z,29.63
2018-11-29T18:50:20.557Z,29.57
2018-11-29T18:52:49.067Z,30.23
2018-11-29T18:55:17.679Z,25.30
2018-11-29T18:57:46.140Z,27.57
2018-11-29T19:00:22.282Z,22.73
2018-11-29T19:02:50.729Z,27.57
2018-11-29T19:05:19.277Z,28.77
2018-11-29T19:07:47.774Z,31.13
2018-11-29T19:10:16.970Z,28.80
2018-11-29T19:12:47.926Z,24.43
2018-11-29T19:15:16.409Z,27.67
2018-11-29T19:17:44.990Z,29.27
2018-11-29T19:20:13.916Z,27.23
2018-11-29T19:22:42.421Z,29.03
2018-11-29T19:25:14.961Z,31.20
2018-11-29T19:27:43.418Z,24.40
2018-11-29T19:30:19.744Z,28.33
2018-11-29T19:32:49.931Z,31.00
2018-11-29T19:35:18.358Z,30.27
2018-11-29T19:37:46.871Z,29.40
2018-11-29T19:40:16.227Z,28.00
2018-11-29T19:42:44.741Z,31.60
2018-11-29T19:45:14.503Z,33.07
2018-11-29T19:47:42.969Z,27.77
2018-11-29T19:50:13.747Z,23.37
2018-11-29T19:52:42.666Z,27.67
2018-11-29T19:55:12.905Z,26.90
2018-11-29T19:57:41.330Z,27.93
2018-11-29T20:00:11.406Z,25.60
2018-11-29T20:02:39.885Z,27.83
2018-11-29T20:05:10.138Z,35.77
2018-11-29T20:07:38.550Z,26.97
2018-11-29T20:10:15.355Z,24.60
2018-11-29T20:12:44.431Z,28.77
2018-11-29T20:15:17.117Z,23.37
2018-11-29T20:17:45.583Z,28.83
2018-11-29T20:20:14.057Z,24.93
2018-11-29T20:22:42.678Z,28.33
2018-11-29T20:25:14.041Z,24.07
2018-11-29T20:27:42.522Z,26.77
2018-11-29T20:30:17.002Z,24.53
2018-11-29T20:32:45.773Z,25.80
2018-11-29T20:35:14.218Z,27.87
2018-11-29T20:37:42.936Z,27.23
2018-11-29T20:40:15.202Z,27.37
2018-11-29T20:42:44.035Z,25.63
2018-11-29T20:45:21.385Z,24.30
2018-11-29T20:47:49.857Z,27.67
2018-11-29T20:50:19.665Z,27.70
2018-11-29T20:52:49.042Z,23.23
2018-11-29T20:55:23.430Z,27.50
2018-11-29T20:57:51.982Z,21.93
2018-11-29T21:00:20.461Z,18.37
2018-11-29T21:02:49.024Z,24.37
2018-11-29T21:05:18.650Z,21.97
2018-11-29T21:07:48.578Z,25.50
2018-11-29T21:10:20.074Z,23.70
2018-11-29T21:12:48.439Z,20.77
2018-11-29T21:15:16.886Z,49.90
2018-11-29T21:17:45.422Z,22.73
2018-11-29T21:20:15.086Z,22.97
2018-11-29T21:22:45.521Z,21.40
2018-11-29T21:25:18.635Z,21.20
2018-11-29T21:27:47.032Z,19.53
2018-11-29T21:30:16.206Z,17.50
2018-11-29T21:32:44.817Z,19.07
2018-11-29T21:35:15.200Z,19.20
2018-11-29T21:37:44.340Z,18.47
2018-11-29T21:40:18.418Z,17.07
2018-11-29T21:42:46.821Z,21.67
2018-11-29T21:45:15.238Z,18.90
2018-11-29T21:47:43.684Z,23.40
2018-11-29T21:50:12.127Z,19.50
2018-11-29T21:52:40.937Z,21.40
2018-11-29T21:55:09.781Z,23.37
2018-11-29T21:57:38.584Z,19.07
2018-11-29T22:00:09.818Z,23.67
2018-11-29T22:02:41.743Z,22.83
2018-11-29T22:05:07.978Z,17.23
2018-11-29T22:07:36.754Z,24.53
2018-11-29T22:10:05.870Z,25.07
2018-11-29T22:12:34.530Z,21.83
2018-11-29T22:15:03.306Z,25.40
2018-11-29T22:17:32.652Z,22.47
2018-11-29T22:20:01.397Z,25.93
2018-11-29T22:22:30.114Z,21.00
2018-11-29T22:24:58.834Z,26.87
2018-11-29T22:27:27.577Z,25.70
2018-11-29T22:29:56.350Z,22.73
2018-11-29T22:32:25.038Z,26.90
2018-11-29T22:34:53.742Z,20.07
2018-11-29T22:37:22.932Z,25.43
2018-11-29T22:39:51.473Z,20.77
2018-11-29T22:42:19.852Z,24.97
2018-11-29T22:44:48.247Z,24.83
2018-11-29T22:47:17.822Z,24.83
2018-11-29T22:49:46.190Z,22.07
2018-11-29T22:52:14.758Z,20.73
2018-11-29T22:54:43.171Z,19.07
2018-11-29T22:57:11.571Z,18.53
2018-11-29T22:59:40.032Z,19.77
2018-11-29T23:02:08.433Z,20.00
2018-11-29T23:04:36.827Z,24.07
2018-11-29T23:07:05.653Z,19.63
2018-11-29T23:09:34.072Z,20.67
2018-11-29T23:12:03.063Z,17.47
2018-11-29T23:14:32.256Z,19.57
2018-11-29T23:17:00.645Z,20.60
2018-11-29T23:19:29.044Z,17.43
2018-11-29T23:21:57.486Z,15.50
2018-11-29T23:24:25.922Z,14.83
2018-11-29T23:26:54.310Z,17.37
2018-11-29T23:29:23.980Z,18.70
2018-11-29T23:31:52.388Z,16.67
2018-11-29T23:34:21.194Z,15.97
2018-11-29T23:36:49.605Z,17.37
2018-11-29T23:39:18.003Z,19.40
2018-11-29T23:41:46.404Z,16.97
2018-11-29T23:44:15.326Z,15.87
2018-11-29T23:46:43.726Z,22.17
2018-11-29T23:49:12.144Z,19.87
2018-11-29T23:51:40.718Z,22.13
2018-11-29T23:54:09.069Z,24.17
2018-11-29T23:56:37.483Z,19.70
2018-11-29T23:59:05.942Z,21.60
